sensor_id;sensor_type;location;lat;lon;timestamp;pressure;altitude;pressure_sealevel;temperature;humidity
19884;BME280;10104;50.732;10.174;2023-02-21T00:00:31;98222.19;;;9.29;98.38
19884;BME280;10104;50.732;10.174;2023-02-21T00:03:11;98231.63;;;9.31;98.48
19884;BME280;10104;50.732;10.174;2023-02-21T00:05:51;98223.00;;;9.38;98.20
19884;BME280;10104;50.732;10.174;2023-02-21T00:08:31;98226.66;;;9.28;98.63
19884;BME280;10104;50.732;10.174;2023-02-21T00:11:11;98229.31;;;9.28;98.73
19884;BME280;10104;50.732;10.174;2023-02-21T00:13:51;98225.22;;;9.18;99.26
19884;BME280;10104;50.732;10.174;2023-02-21T00:16:31;98220.84;;;8.94;100.00
19884;BME280;10104;50.732;10.174;2023-02-21T00:19:11;98216.19;;;9.04;100.00
19884;BME280;10104;50.732;10.174;2023-02-21T00:21:52;98201.03;;;8.98;100.00
19884;BME280;10104;50.732;10.174;2023-02-21T00:24:32;98197.41;;;8.91;100.00
19884;BME280;10104;50.732;10.174;2023-02-21T00:27:12;98204.00;;;8.95;100.00
19884;BME280;10104;50.732;10.174;2023-02-21T00:29:52;98205.03;;;8.86;100.00
19884;BME280;10104;50.732;10.174;2023-02-21T00:32:32;98198.53;;;8.97;100.00
19884;BME280;10104;50.732;10.174;2023-02-21T00:35:13;98195.94;;;8.88;100.00
19884;BME280;10104;50.732;10.174;2023-02-21T00:37:53;98210.59;;;8.91;99.28
19884;BME280;10104;50.732;10.174;2023-02-21T00:40:33;98200.88;;;8.91;99.20
19884;BME280;10104;50.732;10.174;2023-02-21T00:43:13;98194.38;;;9.02;98.36
19884;BME280;10104;50.732;10.174;2023-02-21T00:45:54;98190.75;;;9.03;97.77
19884;BME280;10104;50.732;10.174;2023-02-21T00:48:35;98197.38;;;8.99;98.56
19884;BME280;10104;50.732;10.174;2023-02-21T00:51:16;98199.88;;;9.01;98.44
19884;BME280;10104;50.732;10.174;2023-02-21T00:53:56;98187.97;;;9.05;98.11
19884;BME280;10104;50.732;10.174;2023-02-21T00:56:36;98191.44;;;8.97;97.79
19884;BME280;10104;50.732;10.174;2023-02-21T00:59:16;98182.19;;;9.01;97.66
19884;BME280;10104;50.732;10.174;2023-02-21T01:01:56;98178.41;;;8.96;97.56
19884;BME280;10104;50.732;10.174;2023-02-21T01:04:36;98186.16;;;8.97;97.81
19884;BME280;10104;50.732;10.174;2023-02-21T01:07:17;98177.25;;;8.98;96.51
19884;BME280;10104;50.732;10.174;2023-02-21T01:09:57;98175.13;;;8.93;97.90
19884;BME280;10104;50.732;10.174;2023-02-21T01:12:36;98167.84;;;8.96;97.45
19884;BME280;10104;50.732;10.174;2023-02-21T01:15:17;98175.91;;;9.02;97.15
19884;BME280;10104;50.732;10.174;2023-02-21T01:17:57;98170.13;;;9.07;96.51
19884;BME280;10104;50.732;10.174;2023-02-21T01:20:36;98162.91;;;9.01;96.96
19884;BME280;10104;50.732;10.174;2023-02-21T01:23:17;98154.59;;;9.04;96.49
19884;BME280;10104;50.732;10.174;2023-02-21T01:25:57;98152.78;;;9.04;96.54
19884;BME280;10104;50.732;10.174;2023-02-21T01:28:37;98152.19;;;8.94;97.21
19884;BME280;10104;50.732;10.174;2023-02-21T01:31:18;98156.13;;;8.98;96.97
19884;BME280;10104;50.732;10.174;2023-02-21T01:33:58;98156.78;;;9.00;96.91
19884;BME280;10104;50.732;10.174;2023-02-21T01:36:41;98159.09;;;8.95;96.84
19884;BME280;10104;50.732;10.174;2023-02-21T01:39:21;98152.66;;;8.98;96.88
19884;BME280;10104;50.732;10.174;2023-02-21T01:42:02;98150.13;;;9.12;96.61
19884;BME280;10104;50.732;10.174;2023-02-21T01:44:44;98144.53;;;9.07;96.29
19884;BME280;10104;50.732;10.174;2023-02-21T01:47:24;98142.41;;;9.03;96.10
19884;BME280;10104;50.732;10.174;2023-02-21T01:50:31;98146.84;;;9.02;96.17
19884;BME280;10104;50.732;10.174;2023-02-21T01:53:19;98136.13;;;9.04;96.21
19884;BME280;10104;50.732;10.174;2023-02-21T01:56:01;98137.94;;;9.03;96.17
19884;BME280;10104;50.732;10.174;2023-02-21T01:58:41;98139.59;;;9.04;96.64
19884;BME280;10104;50.732;10.174;2023-02-21T02:01:32;98141.91;;;9.07;95.88
19884;BME280;10104;50.732;10.174;2023-02-21T02:04:14;98136.38;;;9.17;95.93
19884;BME280;10104;50.732;10.174;2023-02-21T02:06:54;98141.38;;;9.12;96.05
19884;BME280;10104;50.732;10.174;2023-02-21T02:09:34;98141.16;;;9.21;95.49
19884;BME280;10104;50.732;10.174;2023-02-21T02:12:24;98136.38;;;9.17;95.18
19884;BME280;10104;50.732;10.174;2023-02-21T02:20:51;98134.41;;;9.19;95.19
19884;BME280;10104;50.732;10.174;2023-02-21T02:45:23;98133.63;;;9.10;96.73
19884;BME280;10104;50.732;10.174;2023-02-21T02:47:51;98130.31;;;9.08;96.33
19884;BME280;10104;50.732;10.174;2023-02-21T02:50:15;98131.63;;;9.12;96.32
19884;BME280;10104;50.732;10.174;2023-02-21T02:52:48;98128.78;;;9.14;96.21
19884;BME280;10104;50.732;10.174;2023-02-21T02:55:33;98119.88;;;9.15;95.53
19884;BME280;10104;50.732;10.174;2023-02-21T02:57:56;98125.28;;;9.21;95.42
19884;BME280;10104;50.732;10.174;2023-02-21T03:00:18;98122.94;;;9.26;95.19
19884;BME280;10104;50.732;10.174;2023-02-21T03:05:53;98126.66;;;9.17;94.99
19884;BME280;10104;50.732;10.174;2023-02-21T03:11:19;98128.44;;;9.25;94.62
19884;BME280;10104;50.732;10.174;2023-02-21T03:14:00;98123.03;;;9.18;95.07
19884;BME280;10104;50.732;10.174;2023-02-21T03:16:34;98124.00;;;9.17;94.59
19884;BME280;10104;50.732;10.174;2023-02-21T03:19:03;98114.13;;;9.11;94.93
19884;BME280;10104;50.732;10.174;2023-02-21T03:21:31;98121.91;;;9.13;94.71
19884;BME280;10104;50.732;10.174;2023-02-21T03:23:57;98124.03;;;9.09;95.31
19884;BME280;10104;50.732;10.174;2023-02-21T03:26:20;98113.63;;;9.08;95.73
19884;BME280;10104;50.732;10.174;2023-02-21T03:28:42;98114.31;;;9.10;95.68
19884;BME280;10104;50.732;10.174;2023-02-21T03:31:06;98123.56;;;9.06;96.43
19884;BME280;10104;50.732;10.174;2023-02-21T03:33:29;98130.22;;;8.93;96.57
19884;BME280;10104;50.732;10.174;2023-02-21T03:35:51;98128.41;;;8.94;96.54
19884;BME280;10104;50.732;10.174;2023-02-21T03:38:13;98132.50;;;8.97;96.81
19884;BME280;10104;50.732;10.174;2023-02-21T03:40:35;98137.63;;;8.98;96.88
19884;BME280;10104;50.732;10.174;2023-02-21T03:42:58;98142.56;;;9.01;97.25
19884;BME280;10104;50.732;10.174;2023-02-21T03:45:20;98143.38;;;9.02;97.08
19884;BME280;10104;50.732;10.174;2023-02-21T03:47:42;98142.56;;;9.01;97.45
19884;BME280;10104;50.732;10.174;2023-02-21T03:50:04;98144.41;;;9.01;97.34
19884;BME280;10104;50.732;10.174;2023-02-21T03:52:26;98144.22;;;9.02;97.38
19884;BME280;10104;50.732;10.174;2023-02-21T03:54:47;98146.72;;;8.96;97.81
19884;BME280;10104;50.732;10.174;2023-02-21T03:57:09;98138.75;;;9.04;96.98
19884;BME280;10104;50.732;10.174;2023-02-21T03:59:31;98138.25;;;9.08;97.03
19884;BME280;10104;50.732;10.174;2023-02-21T04:01:52;98145.59;;;9.21;95.71
19884;BME280;10104;50.732;10.174;2023-02-21T04:04:14;98136.91;;;9.12;96.74
19884;BME280;10104;50.732;10.174;2023-02-21T04:06:35;98127.03;;;9.06;97.67
19884;BME280;10104;50.732;10.174;2023-02-21T04:08:57;98136.13;;;9.04;97.87
19884;BME280;10104;50.732;10.174;2023-02-21T04:11:21;98127.22;;;8.97;98.55
19884;BME280;10104;50.732;10.174;2023-02-21T04:13:43;98121.88;;;8.82;99.57
19884;BME280;10104;50.732;10.174;2023-02-21T04:16:04;98128.97;;;8.81;100.00
19884;BME280;10104;50.732;10.174;2023-02-21T04:18:26;98119.09;;;8.75;100.00
19884;BME280;10104;50.732;10.174;2023-02-21T04:20:47;98129.81;;;8.74;100.00
19884;BME280;10104;50.732;10.174;2023-02-21T04:23:09;98126.66;;;8.70;100.00
19884;BME280;10104;50.732;10.174;2023-02-21T04:25:31;98126.34;;;8.73;100.00
19884;BME280;10104;50.732;10.174;2023-02-21T04:27:52;98125.88;;;8.70;100.00
19884;BME280;10104;50.732;10.174;2023-02-21T04:30:14;98123.72;;;8.73;100.00
19884;BME280;10104;50.732;10.174;2023-02-21T04:32:35;98121.53;;;8.77;100.00
19884;BME280;10104;50.732;10.174;2023-02-21T04:34:57;98125.53;;;8.73;100.00
19884;BME280;10104;50.732;10.174;2023-02-21T04:37:20;98123.03;;;8.71;100.00
19884;BME280;10104;50.732;10.174;2023-02-21T04:39:41;98117.63;;;8.65;100.00
19884;BME280;10104;50.732;10.174;2023-02-21T04:42:03;98128.47;;;8.78;100.00
19884;BME280;10104;50.732;10.174;2023-02-21T04:44:24;98129.97;;;8.80;100.00
19884;BME280;10104;50.732;10.174;2023-02-21T04:46:46;98132.28;;;8.75;100.00
19884;BME280;10104;50.732;10.174;2023-02-21T04:49:09;98129.84;;;8.66;100.00
19884;BME280;10104;50.732;10.174;2023-02-21T04:51:32;98123.72;;;8.73;100.00
19884;BME280;10104;50.732;10.174;2023-02-21T04:53:53;98125.53;;;8.65;100.00
19884;BME280;10104;50.732;10.174;2023-02-21T04:56:20;98120.31;;;8.57;100.00
19884;BME280;10104;50.732;10.174;2023-02-21T04:58:43;98119.81;;;8.53;100.00
19884;BME280;10104;50.732;10.174;2023-02-21T05:01:06;98119.50;;;8.40;100.00
19884;BME280;10104;50.732;10.174;2023-02-21T05:03:27;98117.53;;;8.42;100.00
19884;BME280;10104;50.732;10.174;2023-02-21T05:05:50;98118.84;;;8.30;100.00
19884;BME280;10104;50.732;10.174;2023-02-21T05:08:12;98123.66;;;8.18;100.00
19884;BME280;10104;50.732;10.174;2023-02-21T05:10:33;98123.50;;;8.20;100.00
19884;BME280;10104;50.732;10.174;2023-02-21T05:13:05;98116.88;;;8.16;100.00
19884;BME280;10104;50.732;10.174;2023-02-21T05:15:27;98120.03;;;8.11;100.00
19884;BME280;10104;50.732;10.174;2023-02-21T05:17:48;98120.19;;;8.09;100.00
19884;BME280;10104;50.732;10.174;2023-02-21T05:20:10;98118.72;;;8.07;100.00
19884;BME280;10104;50.732;10.174;2023-02-21T05:22:32;98123.50;;;8.11;100.00
19884;BME280;10104;50.732;10.174;2023-02-21T05:24:54;98118.41;;;7.94;100.00
19884;BME280;10104;50.732;10.174;2023-02-21T05:27:20;98107.53;;;7.89;100.00
19884;BME280;10104;50.732;10.174;2023-02-21T05:29:46;98109.97;;;7.90;100.00
19884;BME280;10104;50.732;10.174;2023-02-21T05:32:08;98114.78;;;7.95;100.00
19884;BME280;10104;50.732;10.174;2023-02-21T05:34:30;98107.34;;;7.98;100.00
19884;BME280;10104;50.732;10.174;2023-02-21T05:36:51;98120.06;;;7.95;100.00
19884;BME280;10104;50.732;10.174;2023-02-21T05:39:13;98107.03;;;7.93;100.00
19884;BME280;10104;50.732;10.174;2023-02-21T05:41:35;98097.47;;;7.92;100.00
19884;BME280;10104;50.732;10.174;2023-02-21T05:43:56;98099.13;;;7.93;100.00
19884;BME280;10104;50.732;10.174;2023-02-21T05:46:19;98096.00;;;7.90;100.00
19884;BME280;10104;50.732;10.174;2023-02-21T05:48:41;98086.25;;;7.90;100.00
19884;BME280;10104;50.732;10.174;2023-02-21T05:51:02;98103.75;;;7.83;100.00
19884;BME280;10104;50.732;10.174;2023-02-21T05:53:24;98099.13;;;7.85;100.00
19884;BME280;10104;50.732;10.174;2023-02-21T05:55:45;98099.31;;;7.84;100.00
19884;BME280;10104;50.732;10.174;2023-02-21T05:58:07;98106.84;;;7.79;100.00
19884;BME280;10104;50.732;10.174;2023-02-21T06:00:29;98101.44;;;7.80;100.00
19884;BME280;10104;50.732;10.174;2023-02-21T06:02:51;98105.72;;;7.73;100.00
19884;BME280;10104;50.732;10.174;2023-02-21T06:05:12;98110.50;;;7.78;100.00
19884;BME280;10104;50.732;10.174;2023-02-21T06:07:34;98098.16;;;7.70;100.00
19884;BME280;10104;50.732;10.174;2023-02-21T06:09:55;98104.91;;;7.81;100.00
19884;BME280;10104;50.732;10.174;2023-02-21T06:12:17;98103.56;;;7.85;100.00
19884;BME280;10104;50.732;10.174;2023-02-21T06:14:38;98095.84;;;7.75;100.00
19884;BME280;10104;50.732;10.174;2023-02-21T06:17:00;98103.41;;;7.70;100.00
19884;BME280;10104;50.732;10.174;2023-02-21T06:19:22;98103.41;;;7.70;100.00
19884;BME280;10104;50.732;10.174;2023-02-21T06:21:45;98104.56;;;7.67;100.00
19884;BME280;10104;50.732;10.174;2023-02-21T06:24:07;98108.00;;;7.60;100.00
19884;BME280;10104;50.732;10.174;2023-02-21T06:26:29;98108.03;;;7.68;100.00
19884;BME280;10104;50.732;10.174;2023-02-21T06:28:51;98111.31;;;7.78;100.00
19884;BME280;10104;50.732;10.174;2023-02-21T06:31:13;98105.88;;;7.80;100.00
19884;BME280;10104;50.732;10.174;2023-02-21T06:33:35;98107.84;;;7.86;100.00
19884;BME280;10104;50.732;10.174;2023-02-21T06:35:57;98113.13;;;7.94;100.00
19884;BME280;10104;50.732;10.174;2023-02-21T06:38:18;98103.25;;;7.88;100.00
19884;BME280;10104;50.732;10.174;2023-02-21T06:40:40;98108.66;;;8.02;100.00
19884;BME280;10104;50.732;10.174;2023-02-21T06:43:01;98108.03;;;8.00;100.00
19884;BME280;10104;50.732;10.174;2023-02-21T06:45:23;98108.50;;;8.20;100.00
19884;BME280;10104;50.732;10.174;2023-02-21T06:47:44;98116.72;;;8.25;100.00
19884;BME280;10104;50.732;10.174;2023-02-21T06:50:06;98112.28;;;8.26;100.00
19884;BME280;10104;50.732;10.174;2023-02-21T06:52:30;98107.13;;;8.48;100.00
19884;BME280;10104;50.732;10.174;2023-02-21T06:54:52;98114.72;;;8.43;100.00
19884;BME280;10104;50.732;10.174;2023-02-21T06:57:14;98109.63;;;8.42;100.00
19884;BME280;10104;50.732;10.174;2023-02-21T06:59:35;98107.09;;;8.57;100.00
19884;BME280;10104;50.732;10.174;2023-02-21T07:01:57;98108.56;;;8.59;100.00
19884;BME280;10104;50.732;10.174;2023-02-21T07:04:19;98106.03;;;8.82;100.00
19884;BME280;10104;50.732;10.174;2023-02-21T07:06:40;98102.06;;;8.78;100.00
19884;BME280;10104;50.732;10.174;2023-02-21T07:09:02;98112.75;;;8.92;100.00
19884;BME280;10104;50.732;10.174;2023-02-21T07:11:24;98111.44;;;8.88;99.48
19884;BME280;10104;50.732;10.174;2023-02-21T07:13:52;98115.13;;;9.10;99.25
19884;BME280;10104;50.732;10.174;2023-02-21T07:16:14;98117.38;;;9.21;98.92
19884;BME280;10104;50.732;10.174;2023-02-21T07:18:38;98124.97;;;9.24;99.35
19884;BME280;10104;50.732;10.174;2023-02-21T07:20:59;98128.09;;;9.20;99.41
19884;BME280;10104;50.732;10.174;2023-02-21T07:23:21;98121.44;;;9.32;98.42
19884;BME280;10104;50.732;10.174;2023-02-21T07:25:42;98125.56;;;9.57;96.55
19884;BME280;10104;50.732;10.174;2023-02-21T07:28:04;98127.75;;;9.54;96.29
19884;BME280;10104;50.732;10.174;2023-02-21T07:30:26;98131.09;;;9.48;97.29
19884;BME280;10104;50.732;10.174;2023-02-21T07:32:47;98134.03;;;9.53;97.13
19884;BME280;10104;50.732;10.174;2023-02-21T07:35:09;98129.97;;;9.42;97.96
19884;BME280;10104;50.732;10.174;2023-02-21T07:37:31;98131.00;;;9.33;98.57
19884;BME280;10104;50.732;10.174;2023-02-21T07:39:52;98130.38;;;9.31;99.08
19884;BME280;10104;50.732;10.174;2023-02-21T07:42:14;98140.28;;;9.29;98.56
19884;BME280;10104;50.732;10.174;2023-02-21T07:44:35;98146.94;;;9.48;98.82
19884;BME280;10104;50.732;10.174;2023-02-21T07:46:57;98141.66;;;9.48;98.96
19884;BME280;10104;50.732;10.174;2023-02-21T07:49:18;98141.25;;;9.59;98.90
19884;BME280;10104;50.732;10.174;2023-02-21T07:51:40;98134.38;;;9.72;98.42
19884;BME280;10104;50.732;10.174;2023-02-21T07:54:01;98134.03;;;9.75;98.38
19884;BME280;10104;50.732;10.174;2023-02-21T07:56:23;98142.59;;;9.78;98.11
19884;BME280;10104;50.732;10.174;2023-02-21T07:58:44;98141.34;;;9.73;98.36
19884;BME280;10104;50.732;10.174;2023-02-21T08:01:06;98139.97;;;9.78;97.12
19884;BME280;10104;50.732;10.174;2023-02-21T08:03:28;98140.97;;;9.77;97.69
19884;BME280;10104;50.732;10.174;2023-02-21T08:05:49;98147.06;;;9.77;97.55
19884;BME280;10104;50.732;10.174;2023-02-21T08:08:11;98145.94;;;9.94;96.23
19884;BME280;10104;50.732;10.174;2023-02-21T08:10:34;98146.06;;;10.01;96.34
19884;BME280;10104;50.732;10.174;2023-02-21T08:12:56;98145.97;;;10.17;96.07
19884;BME280;10104;50.732;10.174;2023-02-21T08:15:17;98139.31;;;10.21;94.66
19884;BME280;10104;50.732;10.174;2023-02-21T08:17:39;98136.22;;;10.18;94.53
19884;BME280;10104;50.732;10.174;2023-02-21T08:20:01;98125.41;;;10.19;96.03
19884;BME280;10104;50.732;10.174;2023-02-21T08:22:23;98124.09;;;10.23;96.19
19884;BME280;10104;50.732;10.174;2023-02-21T08:24:44;98148.53;;;10.25;96.12
19884;BME280;10104;50.732;10.174;2023-02-21T08:27:06;98145.91;;;10.40;95.17
19884;BME280;10104;50.732;10.174;2023-02-21T08:29:28;98149.72;;;10.37;93.95
19884;BME280;10104;50.732;10.174;2023-02-21T08:31:49;98149.00;;;10.43;93.94
19884;BME280;10104;50.732;10.174;2023-02-21T08:34:11;98143.81;;;10.50;92.62
19884;BME280;10104;50.732;10.174;2023-02-21T08:36:36;98149.84;;;10.59;92.59
19884;BME280;10104;50.732;10.174;2023-02-21T08:38:58;98147.75;;;10.83;91.55
19884;BME280;10104;50.732;10.174;2023-02-21T08:41:19;98152.84;;;11.00;90.79
19884;BME280;10104;50.732;10.174;2023-02-21T08:43:40;98143.81;;;11.09;90.66
19884;BME280;10104;50.732;10.174;2023-02-21T08:46:02;98157.25;;;11.22;90.40
19884;BME280;10104;50.732;10.174;2023-02-21T08:48:24;98164.28;;;11.15;90.55
19884;BME280;10104;50.732;10.174;2023-02-21T08:50:45;98160.72;;;10.93;91.67
19884;BME280;10104;50.732;10.174;2023-02-21T08:53:07;98153.88;;;10.84;92.45
19884;BME280;10104;50.732;10.174;2023-02-21T08:55:28;98157.44;;;10.76;92.88
19884;BME280;10104;50.732;10.174;2023-02-21T08:57:51;98149.69;;;10.89;92.41
19884;BME280;10104;50.732;10.174;2023-02-21T09:00:15;98159.66;;;10.73;93.12
19884;BME280;10104;50.732;10.174;2023-02-21T09:02:37;98155.06;;;10.81;94.12
19884;BME280;10104;50.732;10.174;2023-02-21T09:05:01;98166.41;;;10.90;93.18
19884;BME280;10104;50.732;10.174;2023-02-21T09:07:22;98159.09;;;10.92;92.85
19884;BME280;10104;50.732;10.174;2023-02-21T09:09:44;98163.38;;;10.93;92.08
19884;BME280;10104;50.732;10.174;2023-02-21T09:12:06;98168.22;;;10.75;93.28
19884;BME280;10104;50.732;10.174;2023-02-21T09:14:31;98170.84;;;10.75;93.29
19884;BME280;10104;50.732;10.174;2023-02-21T09:16:52;98177.34;;;10.87;94.08
19884;BME280;10104;50.732;10.174;2023-02-21T09:19:14;98170.31;;;10.94;92.32
19884;BME280;10104;50.732;10.174;2023-02-21T09:21:35;98165.28;;;10.99;93.15
19884;BME280;10104;50.732;10.174;2023-02-21T09:24:05;98165.09;;;11.01;92.91
19884;BME280;10104;50.732;10.174;2023-02-21T09:26:27;98164.41;;;10.92;93.61
19884;BME280;10104;50.732;10.174;2023-02-21T09:28:52;98163.00;;;10.96;94.27
19884;BME280;10104;50.732;10.174;2023-02-21T09:31:13;98160.91;;;11.06;92.79
19884;BME280;10104;50.732;10.174;2023-02-21T09:33:36;98154.59;;;11.07;93.47
19884;BME280;10104;50.732;10.174;2023-02-21T09:36:01;98157.25;;;11.22;93.53
19884;BME280;10104;50.732;10.174;2023-02-21T09:38:22;98149.31;;;11.43;92.46
19884;BME280;10104;50.732;10.174;2023-02-21T09:40:47;98151.75;;;11.59;91.79
19884;BME280;10104;50.732;10.174;2023-02-21T09:43:14;98151.78;;;11.81;91.06
19884;BME280;10104;50.732;10.174;2023-02-21T09:45:37;98148.13;;;11.82;90.28
19884;BME280;10104;50.732;10.174;2023-02-21T09:48:04;98141.72;;;11.97;89.89
19884;BME280;10104;50.732;10.174;2023-02-21T09:50:29;98153.22;;;12.04;90.25
19884;BME280;10104;50.732;10.174;2023-02-21T09:52:56;98152.47;;;12.10;88.63
19884;BME280;10104;50.732;10.174;2023-02-21T09:55:28;98153.22;;;12.26;88.54
19884;BME280;10104;50.732;10.174;2023-02-21T09:57:51;98152.72;;;12.43;88.79
19884;BME280;10104;50.732;10.174;2023-02-21T10:00:21;98164.25;;;12.29;88.51
19884;BME280;10104;50.732;10.174;2023-02-21T10:05:47;98160.69;;;12.15;87.13
19884;BME280;10104;50.732;10.174;2023-02-21T10:08:25;98166.25;;;12.21;87.68
19884;BME280;10104;50.732;10.174;2023-02-21T10:10:51;98170.03;;;12.33;88.03
19884;BME280;10104;50.732;10.174;2023-02-21T10:13:25;98174.06;;;12.29;87.96
19884;BME280;10104;50.732;10.174;2023-02-21T10:16:13;98167.75;;;12.57;87.67
19884;BME280;10104;50.732;10.174;2023-02-21T10:21:21;98168.81;;;12.63;86.36
19884;BME280;10104;50.732;10.174;2023-02-21T10:23:50;98157.78;;;12.66;85.97
19884;BME280;10104;50.732;10.174;2023-02-21T10:26:19;98159.66;;;12.72;84.59
19884;BME280;10104;50.732;10.174;2023-02-21T10:28:43;98159.88;;;12.71;84.63
19884;BME280;10104;50.732;10.174;2023-02-21T10:31:17;98156.63;;;12.75;84.18
19884;BME280;10104;50.732;10.174;2023-02-21T10:33:40;98152.81;;;12.91;83.86
19884;BME280;10104;50.732;10.174;2023-02-21T10:36:09;98158.47;;;12.75;84.80
19884;BME280;10104;50.732;10.174;2023-02-21T10:38:31;98164.94;;;13.00;83.00
19884;BME280;10104;50.732;10.174;2023-02-21T10:40:56;98159.31;;;13.16;83.09
19884;BME280;10104;50.732;10.174;2023-02-21T10:43:35;98157.53;;;13.23;82.17
19884;BME280;10104;50.732;10.174;2023-02-21T10:46:17;98156.53;;;13.31;82.05
19884;BME280;10104;50.732;10.174;2023-02-21T10:48:43;98170.47;;;13.40;81.84
19884;BME280;10104;50.732;10.174;2023-02-21T10:51:11;98158.75;;;13.27;80.28
19884;BME280;10104;50.732;10.174;2023-02-21T10:53:35;98160.41;;;13.28;82.35
19884;BME280;10104;50.732;10.174;2023-02-21T10:58:47;98158.72;;;13.14;83.42
19884;BME280;10104;50.732;10.174;2023-02-21T11:01:16;98165.88;;;13.14;82.33
19884;BME280;10104;50.732;10.174;2023-02-21T11:03:43;98161.16;;;13.16;83.03
19884;BME280;10104;50.732;10.174;2023-02-21T11:06:05;98160.38;;;13.22;83.40
19884;BME280;10104;50.732;10.174;2023-02-21T11:08:42;98153.94;;;13.51;82.85
19884;BME280;10104;50.732;10.174;2023-02-21T11:11:04;98152.72;;;13.53;82.33
19884;BME280;10104;50.732;10.174;2023-02-21T11:13:26;98157.41;;;13.58;80.55
19884;BME280;10104;50.732;10.174;2023-02-21T11:15:48;98149.84;;;13.48;80.87
19884;BME280;10104;50.732;10.174;2023-02-21T11:18:27;98149.44;;;13.58;80.98
19884;BME280;10104;50.732;10.174;2023-02-21T11:20:49;98146.59;;;13.66;79.94
19884;BME280;10104;50.732;10.174;2023-02-21T11:23:22;98153.19;;;13.70;80.09
19884;BME280;10104;50.732;10.174;2023-02-21T11:25:45;98151.94;;;13.66;79.03
19884;BME280;10104;50.732;10.174;2023-02-21T11:30:35;98145.00;;;13.78;78.55
19884;BME280;10104;50.732;10.174;2023-02-21T11:32:59;98145.38;;;13.62;80.43
19884;BME280;10104;50.732;10.174;2023-02-21T11:35:25;98140.50;;;13.78;78.17
19884;BME280;10104;50.732;10.174;2023-02-21T11:37:55;98131.72;;;13.91;78.80
19884;BME280;10104;50.732;10.174;2023-02-21T11:40:48;98127.22;;;14.11;80.07
19884;BME280;10104;50.732;10.174;2023-02-21T11:43:21;98132.34;;;14.13;76.12
19884;BME280;10104;50.732;10.174;2023-02-21T11:46:01;98122.69;;;13.79;77.58
19884;BME280;10104;50.732;10.174;2023-02-21T11:48:28;98122.28;;;13.95;77.34
19884;BME280;10104;50.732;10.174;2023-02-21T11:50:53;98114.88;;;13.77;77.37
19884;BME280;10104;50.732;10.174;2023-02-21T11:53:30;98112.06;;;14.05;77.47
19884;BME280;10104;50.732;10.174;2023-02-21T11:58:33;98115.56;;;14.12;77.81
19884;BME280;10104;50.732;10.174;2023-02-21T12:01:04;98103.84;;;14.20;74.48
19884;BME280;10104;50.732;10.174;2023-02-21T12:03:49;98106.94;;;14.10;75.69
19884;BME280;10104;50.732;10.174;2023-02-21T12:09:14;98099.34;;;14.27;76.21
19884;BME280;10104;50.732;10.174;2023-02-21T12:29:57;98074.97;;;14.30;77.12
19884;BME280;10104;50.732;10.174;2023-02-21T12:32:48;98078.47;;;14.37;74.98
19884;BME280;10104;50.732;10.174;2023-02-21T12:38:02;98067.59;;;14.39;74.32
19884;BME280;10104;50.732;10.174;2023-02-21T12:43:29;98061.81;;;14.68;72.61
19884;BME280;10104;50.732;10.174;2023-02-21T12:46:23;98054.16;;;14.78;73.26
19884;BME280;10104;50.732;10.174;2023-02-21T12:48:49;98054.38;;;14.77;73.96
19884;BME280;10104;50.732;10.174;2023-02-21T12:51:24;98057.41;;;14.93;73.61
19884;BME280;10104;50.732;10.174;2023-02-21T12:56:38;98058.59;;;15.04;71.83
19884;BME280;10104;50.732;10.174;2023-02-21T12:59:24;98053.66;;;15.01;72.22
19884;BME280;10104;50.732;10.174;2023-02-21T13:01:55;98050.00;;;14.95;72.47
19884;BME280;10104;50.732;10.174;2023-02-21T13:04:31;98036.88;;;14.87;72.04
19884;BME280;10104;50.732;10.174;2023-02-21T13:07:24;98042.09;;;14.69;72.82
19884;BME280;10104;50.732;10.174;2023-02-21T13:10:16;98037.59;;;14.70;72.65
19884;BME280;10104;50.732;10.174;2023-02-21T13:12:46;98028.03;;;14.29;73.45
19884;BME280;10104;50.732;10.174;2023-02-21T13:15:20;98034.22;;;14.10;75.68
19884;BME280;10104;50.732;10.174;2023-02-21T13:17:42;98027.22;;;14.29;75.69
19884;BME280;10104;50.732;10.174;2023-02-21T13:20:08;98028.88;;;14.23;77.06
19884;BME280;10104;50.732;10.174;2023-02-21T13:22:55;98026.59;;;14.27;76.87
19884;BME280;10104;50.732;10.174;2023-02-21T13:28:00;98016.19;;;14.18;77.08
19884;BME280;10104;50.732;10.174;2023-02-21T13:30:36;98026.22;;;14.16;76.54
19884;BME280;10104;50.732;10.174;2023-02-21T13:32:59;98024.34;;;14.30;76.02
19884;BME280;10104;50.732;10.174;2023-02-21T13:35:27;98020.06;;;14.29;76.57
19884;BME280;10104;50.732;10.174;2023-02-21T13:37:50;98017.00;;;14.19;76.52
19884;BME280;10104;50.732;10.174;2023-02-21T13:40:23;98013.28;;;14.20;76.68
19884;BME280;10104;50.732;10.174;2023-02-21T13:42:45;98012.25;;;14.47;76.94
19884;BME280;10104;50.732;10.174;2023-02-21T13:55:29;97992.22;;;14.25;77.83
19884;BME280;10104;50.732;10.174;2023-02-21T14:02:58;97985.66;;;14.14;78.88
19884;BME280;10104;50.732;10.174;2023-02-21T14:05:20;97983.44;;;13.92;79.99
19884;BME280;10104;50.732;10.174;2023-02-21T14:07:44;97990.81;;;13.90;80.27
19884;BME280;10104;50.732;10.174;2023-02-21T14:10:25;97982.22;;;13.94;80.39
19884;BME280;10104;50.732;10.174;2023-02-21T14:12:54;97978.13;;;13.98;80.71
19884;BME280;10104;50.732;10.174;2023-02-21T14:15:16;97980.59;;;13.87;83.11
19884;BME280;10104;50.732;10.174;2023-02-21T14:17:38;97971.16;;;13.91;82.47
19884;BME280;10104;50.732;10.174;2023-02-21T14:20:00;97969.75;;;13.95;81.83
19884;BME280;10104;50.732;10.174;2023-02-21T14:22:29;97973.63;;;13.86;81.53
19884;BME280;10104;50.732;10.174;2023-02-21T14:25:04;97969.31;;;13.91;82.85
19884;BME280;10104;50.732;10.174;2023-02-21T14:32:36;97969.13;;;13.80;81.38
19884;BME280;10104;50.732;10.174;2023-02-21T14:35:00;97965.63;;;13.99;82.31